Time;durP1;ratioP1;P1;durP2;ratioP2;P2;SDS_P1;SDS_P2;PMS_P1;PMS_P2;Temp;Humidity;BMP_temperature;BMP_pressure;BME280_temperature;BME280_humidity;BME280_pressure;Samples;Min_cycle;Max_cycle;Signal;HPM_P1;HPM_P2
2022/12/08 00:01:48;;;;;;;45.58;20.52;;;1.10;99.90;;;;;;6246696;28;20052;-81
2022/12/08 00:11:30;;;;;;;43.57;20.77;;;1.00;99.90;;;;;;6249356;28;20049;-81
2022/12/08 00:14:33;;;;;;;47.47;22.10;;;1.00;99.90;;;;;;6249209;28;20045;-81
2022/12/08 00:17:35;;;;;;;46.97;21.90;;;1.10;99.90;;;;;;6249105;28;20049;-82
2022/12/08 00:20:36;;;;;;;44.87;22.73;;;1.20;99.90;;;;;;6249111;28;20049;-82
2022/12/08 00:23:39;;;;;;;50.93;23.60;;;1.20;99.90;;;;;;6247937;28;20079;-81
2022/12/08 00:26:41;;;;;;;50.30;23.63;;;1.30;99.90;;;;;;6253229;28;20045;-81
2022/12/08 00:29:44;;;;;;;41.17;22.17;;;1.40;99.90;;;;;;6246365;28;20065;-80
2022/12/08 00:32:45;;;;;;;53.63;25.00;;;1.50;99.90;;;;;;6248222;28;20523;-82
2022/12/08 00:35:47;;;;;;;58.58;24.13;;;1.50;99.90;;;;;;6249207;28;20053;-81
2022/12/08 00:38:50;;;;;;;55.07;25.07;;;1.50;99.90;;;;;;6248214;28;20045;-81
2022/12/08 00:45:12;;;;;;;57.87;24.27;;;1.60;99.90;;;;;;6256695;28;20053;-81
2022/12/08 00:48:13;;;;;;;58.72;26.40;;;1.70;99.90;;;;;;6256936;28;20056;-81
2022/12/08 00:51:15;;;;;;;47.05;22.08;;;1.70;99.90;;;;;;6256951;28;20037;-80
2022/12/08 00:54:18;;;;;;;51.30;22.77;;;1.60;99.90;;;;;;6258758;28;20060;-81
2022/12/08 00:57:20;;;;;;;48.93;20.80;;;1.50;99.90;;;;;;6257356;28;20052;-81
2022/12/08 01:00:22;;;;;;;47.00;22.27;;;1.50;99.90;;;;;;6259356;28;20060;-81
2022/12/08 01:03:24;;;;;;;47.45;19.27;;;1.40;99.90;;;;;;6257258;28;20052;-81
2022/12/08 01:06:26;;;;;;;44.97;22.23;;;1.30;99.90;;;;;;6257713;28;20563;-82
2022/12/08 01:09:28;;;;;;;43.80;21.50;;;1.30;99.90;;;;;;6257104;28;20053;-80
2022/12/08 01:12:30;;;;;;;45.33;20.27;;;1.30;99.90;;;;;;6249301;28;20053;-82
2022/12/08 01:15:32;;;;;;;44.47;21.63;;;1.20;99.90;;;;;;6233896;28;20053;-81
2022/12/08 01:18:34;;;;;;;46.95;21.67;;;1.20;99.90;;;;;;6234564;28;20050;-82
2022/12/08 01:21:36;;;;;;;41.27;18.73;;;1.10;99.90;;;;;;6235194;28;20042;-82
2022/12/08 01:24:39;;;;;;;31.83;16.60;;;1.10;99.90;;;;;;6236387;28;20064;-82
2022/12/08 01:27:41;;;;;;;43.33;18.13;;;1.00;99.90;;;;;;6255452;28;20057;-81
2022/12/08 01:30:42;;;;;;;42.20;18.93;;;0.90;99.90;;;;;;6282101;28;20041;-82
2022/12/08 01:33:44;;;;;;;42.33;18.30;;;0.90;99.90;;;;;;6262617;28;20055;-82
2022/12/08 01:36:46;;;;;;;49.50;20.23;;;0.90;99.90;;;;;;6262948;28;20054;-82
2022/12/08 01:39:49;;;;;;;46.07;20.07;;;0.80;99.90;;;;;;6263095;28;20134;-82
2022/12/08 01:42:51;;;;;;;45.23;19.77;;;0.80;99.90;;;;;;6271787;28;20049;-80
2022/12/08 01:45:53;;;;;;;45.37;19.93;;;0.90;99.90;;;;;;6259490;28;20056;-82
2022/12/08 01:49:00;;;;;;;41.13;19.80;;;0.90;99.90;;;;;;6257349;28;20100;-82
2022/12/08 01:52:09;;;;;;;46.53;21.57;;;0.90;99.90;;;;;;6256667;28;20415;-82
2022/12/08 01:55:17;;;;;;;43.80;20.77;;;1.00;99.90;;;;;;6252095;28;20053;-82
2022/12/08 01:58:23;;;;;;;45.57;20.80;;;1.00;99.90;;;;;;6248182;28;20470;-82
2022/12/08 02:01:25;;;;;;;45.87;20.73;;;1.00;99.90;;;;;;6250702;28;20044;-82
2022/12/08 02:04:26;;;;;;;37.20;19.93;;;1.00;99.90;;;;;;6254746;28;20049;-81
2022/12/08 02:07:28;;;;;;;47.63;21.50;;;1.00;99.90;;;;;;6253381;28;20058;-82
2022/12/08 02:10:34;;;;;;;47.03;21.33;;;1.00;99.90;;;;;;6253046;28;20053;-81
2022/12/08 02:13:36;;;;;;;41.77;19.67;;;0.90;99.90;;;;;;6254305;28;20060;-79
2022/12/08 02:16:42;;;;;;;48.50;20.10;;;1.00;99.90;;;;;;6254684;28;20053;-79
2022/12/08 02:20:16;;;;;;;40.00;18.57;;;0.90;99.90;;;;;;6256096;28;20049;-80
2022/12/08 02:23:26;;;;;;;42.03;19.63;;;1.00;99.90;;;;;;6255553;28;20052;-80
2022/12/08 02:26:57;;;;;;;47.57;21.13;;;1.00;99.90;;;;;;6254675;28;20057;-80
2022/12/08 02:30:30;;;;;;;42.70;19.53;;;1.00;99.90;;;;;;6270121;28;20045;-80
2022/12/08 02:34:01;;;;;;;44.50;19.70;;;1.00;99.90;;;;;;6255689;28;20096;-80
2022/12/08 02:37:10;;;;;;;49.50;19.07;;;1.00;99.90;;;;;;6263336;28;20056;-81
2022/12/08 02:40:17;;;;;;;43.17;20.27;;;1.10;99.90;;;;;;6252669;28;20068;-80
2022/12/08 02:43:27;;;;;;;53.33;19.90;;;1.10;99.90;;;;;;6254456;28;20092;-80
2022/12/08 02:46:32;;;;;;;38.67;18.63;;;1.20;99.90;;;;;;6254348;28;20053;-80
2022/12/08 02:49:35;;;;;;;44.27;19.90;;;1.30;99.90;;;;;;6253848;28;20065;-80
2022/12/08 02:52:43;;;;;;;46.97;21.13;;;1.40;99.90;;;;;;6250906;28;20049;-81
2022/12/08 02:55:56;;;;;;;36.50;16.55;;;1.50;99.90;;;;;;6253730;28;20056;-80
2022/12/08 02:59:25;;;;;;;49.70;20.17;;;1.60;99.90;;;;;;6253367;28;20046;-81
2022/12/08 03:02:43;;;;;;;50.08;21.33;;;1.60;99.90;;;;;;6252432;28;20045;-81
2022/12/08 03:05:59;;;;;;;37.17;18.97;;;1.70;99.90;;;;;;6253879;28;20045;-80
2022/12/08 03:09:08;;;;;;;45.40;19.30;;;1.70;99.90;;;;;;6253230;28;20050;-81
2022/12/08 03:12:18;;;;;;;45.77;17.50;;;1.70;99.90;;;;;;6253681;28;20041;-80
2022/12/08 03:15:21;;;;;;;42.72;19.00;;;1.70;99.90;;;;;;6252749;28;20519;-80
2022/12/08 03:18:31;;;;;;;34.15;17.58;;;1.70;99.90;;;;;;6253061;28;20056;-80
2022/12/08 03:21:35;;;;;;;34.50;18.88;;;1.70;99.90;;;;;;6252372;28;20415;-80
2022/12/08 03:24:40;;;;;;;40.67;18.10;;;1.70;99.90;;;;;;6254139;28;20068;-81
2022/12/08 03:27:41;;;;;;;41.05;17.65;;;1.60;99.90;;;;;;6252360;28;20053;-80
2022/12/08 03:30:47;;;;;;;32.80;16.03;;;1.50;99.90;;;;;;6267630;28;20048;-80
2022/12/08 03:33:54;;;;;;;38.00;17.37;;;1.50;99.90;;;;;;6276976;28;20052;-80
2022/12/08 03:37:00;;;;;;;35.90;16.23;;;1.50;99.90;;;;;;6277940;28;20120;-80
2022/12/08 03:40:01;;;;;;;46.03;20.95;;;1.50;99.90;;;;;;6276500;28;20052;-80
2022/12/08 03:43:03;;;;;;;43.03;19.83;;;1.50;99.90;;;;;;6277144;28;20044;-80
2022/12/08 03:46:05;;;;;;;39.65;20.77;;;1.50;99.90;;;;;;6277489;28;20049;-80
2022/12/08 03:49:07;;;;;;;43.97;18.40;;;1.40;99.90;;;;;;6276032;28;20049;-80
2022/12/08 03:52:10;;;;;;;46.93;22.50;;;1.50;99.90;;;;;;6277402;28;20051;-80
2022/12/08 03:55:12;;;;;;;46.30;20.33;;;1.40;99.90;;;;;;6276764;28;20055;-81
2022/12/08 03:58:13;;;;;;;48.37;21.87;;;1.40;99.90;;;;;;6276051;28;20574;-80
2022/12/08 04:01:15;;;;;;;45.63;22.30;;;1.40;99.90;;;;;;6276945;28;20723;-80
2022/12/08 04:04:17;;;;;;;39.65;20.58;;;1.40;99.90;;;;;;6277414;28;20049;-80
2022/12/08 04:07:20;;;;;;;47.13;21.83;;;1.40;99.90;;;;;;6275592;28;20183;-81
2022/12/08 04:10:22;;;;;;;41.58;21.40;;;1.30;99.90;;;;;;6275556;28;20048;-80
2022/12/08 04:13:24;;;;;;;50.03;22.02;;;1.30;99.90;;;;;;6276581;28;20049;-80
2022/12/08 04:16:27;;;;;;;50.47;25.20;;;1.30;99.90;;;;;;6277335;28;20063;-80
2022/12/08 04:19:29;;;;;;;55.60;22.73;;;1.30;99.90;;;;;;6276319;28;20072;-80
2022/12/08 04:22:32;;;;;;;54.03;22.80;;;1.30;99.90;;;;;;6277838;28;20053;-80
2022/12/08 04:25:33;;;;;;;59.83;23.50;;;1.30;99.90;;;;;;6277969;28;20041;-81
2022/12/08 04:28:35;;;;;;;51.10;23.47;;;1.30;99.90;;;;;;6277128;28;20045;-80
2022/12/08 04:31:37;;;;;;;49.03;23.67;;;1.30;99.90;;;;;;6260622;28;20041;-80
2022/12/08 04:34:39;;;;;;;77.65;25.77;;;1.30;99.90;;;;;;6252326;28;20056;-80
2022/12/08 04:37:43;;;;;;;57.35;23.25;;;1.20;99.90;;;;;;6252634;28;20056;-80
2022/12/08 04:40:45;;;;;;;51.90;23.30;;;1.20;99.90;;;;;;6253213;28;20045;-80
2022/12/08 04:43:46;;;;;;;53.55;23.73;;;1.20;99.90;;;;;;6255068;28;20064;-80
2022/12/08 04:46:48;;;;;;;47.83;22.63;;;1.20;99.90;;;;;;6257274;28;20053;-80
2022/12/08 04:49:50;;;;;;;44.47;23.07;;;1.10;99.90;;;;;;6250058;28;20049;-80
2022/12/08 04:52:53;;;;;;;65.50;24.10;;;1.10;99.90;;;;;;6251979;28;20045;-80
2022/12/08 04:55:55;;;;;;;51.60;24.37;;;1.10;99.90;;;;;;6249790;28;20050;-81
2022/12/08 04:58:56;;;;;;;52.27;23.20;;;1.00;99.90;;;;;;6249320;28;20059;-81
2022/12/08 05:01:58;;;;;;;55.57;23.47;;;0.90;99.90;;;;;;6249243;28;20050;-80
2022/12/08 05:05:00;;;;;;;59.97;24.07;;;0.90;99.90;;;;;;6249713;28;20053;-80
2022/12/08 05:08:03;;;;;;;53.30;23.93;;;0.90;99.90;;;;;;6249456;28;20050;-80
2022/12/08 05:11:07;;;;;;;53.33;25.00;;;0.90;99.90;;;;;;6249201;28;20045;-81
2022/12/08 05:14:10;;;;;;;52.97;26.73;;;0.90;99.90;;;;;;6250471;28;20049;-80
2022/12/08 05:17:12;;;;;;;60.87;24.10;;;0.80;99.90;;;;;;6249461;28;20049;-80
2022/12/08 05:20:14;;;;;;;48.10;22.23;;;0.80;99.90;;;;;;6248324;28;20060;-81
2022/12/08 05:23:17;;;;;;;56.13;26.07;;;0.80;99.90;;;;;;6248411;28;20361;-81
2022/12/08 05:26:18;;;;;;;60.27;29.77;;;0.80;99.90;;;;;;6248674;28;20422;-81
2022/12/08 05:29:20;;;;;;;74.23;25.87;;;0.80;99.90;;;;;;6251600;28;20116;-81
2022/12/08 05:32:22;;;;;;;63.53;27.73;;;0.80;99.90;;;;;;6259759;28;20052;-81
2022/12/08 05:35:23;;;;;;;69.53;28.70;;;0.80;99.90;;;;;;6253550;28;20530;-81
2022/12/08 05:38:26;;;;;;;55.67;27.77;;;0.80;99.90;;;;;;6253290;28;20045;-80
2022/12/08 05:41:28;;;;;;;65.23;29.17;;;0.80;99.90;;;;;;6256700;28;20045;-81
2022/12/08 05:44:30;;;;;;;59.73;27.60;;;0.80;99.90;;;;;;6258437;28;20057;-81
2022/12/08 05:47:32;;;;;;;67.13;28.43;;;0.80;99.90;;;;;;6254843;28;20045;-81
2022/12/08 05:50:33;;;;;;;63.10;27.93;;;0.90;99.90;;;;;;6254838;28;20054;-81
2022/12/08 05:53:36;;;;;;;70.60;32.73;;;0.90;99.90;;;;;;6255908;28;20041;-81
2022/12/08 05:56:38;;;;;;;66.40;30.93;;;1.00;99.90;;;;;;6255494;28;20057;-81
2022/12/08 05:59:40;;;;;;;61.90;30.77;;;1.00;99.90;;;;;;6253369;28;20064;-81
2022/12/08 06:02:41;;;;;;;65.53;31.10;;;1.00;99.90;;;;;;6253943;28;20053;-81
2022/12/08 06:05:44;;;;;;;72.80;30.43;;;1.10;99.90;;;;;;6254592;28;20049;-80
2022/12/08 06:08:48;;;;;;;75.57;34.30;;;1.20;99.90;;;;;;6252937;28;20053;-81
2022/12/08 06:11:49;;;;;;;80.53;32.40;;;1.20;99.90;;;;;;6254290;28;20045;-81
2022/12/08 06:14:51;;;;;;;74.40;33.33;;;1.20;99.90;;;;;;6254888;28;20046;-81
2022/12/08 06:17:53;;;;;;;82.70;34.40;;;1.30;99.90;;;;;;6252975;28;20049;-81
2022/12/08 06:21:02;;;;;;;71.87;31.90;;;1.30;99.90;;;;;;6255506;28;20124;-81
2022/12/08 06:24:05;;;;;;;70.63;27.37;;;1.30;99.90;;;;;;6254096;28;20152;-81
2022/12/08 06:27:07;;;;;;;79.13;33.53;;;1.30;99.90;;;;;;6253197;28;20499;-81
2022/12/08 06:30:09;;;;;;;62.20;31.77;;;1.30;99.90;;;;;;6253156;28;20049;-81
2022/12/08 06:33:11;;;;;;;62.80;30.00;;;1.30;99.90;;;;;;6260004;28;20121;-79
2022/12/08 06:36:13;;;;;;;75.10;32.97;;;1.30;99.90;;;;;;6252062;28;20045;-80
2022/12/08 06:39:16;;;;;;;76.67;32.03;;;1.40;99.90;;;;;;6251791;28;20052;-80
2022/12/08 06:45:40;;;;;;;82.07;32.87;;;1.40;99.90;;;;;;6253345;28;20049;-80
2022/12/08 06:48:42;;;;;;;73.82;31.08;;;1.50;99.90;;;;;;6253868;28;20056;-79
2022/12/08 06:51:44;;;;;;;74.40;29.73;;;1.40;99.90;;;;;;6252216;28;20499;-80
2022/12/08 06:54:47;;;;;;;78.72;34.58;;;1.40;99.90;;;;;;6254492;28;20053;-80
2022/12/08 06:57:48;;;;;;;74.63;33.70;;;1.40;99.90;;;;;;6253461;28;20049;-80
2022/12/08 07:00:50;;;;;;;78.13;31.30;;;1.40;99.90;;;;;;6254176;28;20057;-80
2022/12/08 07:03:52;;;;;;;74.17;31.17;;;1.40;99.90;;;;;;6255113;28;20049;-80
2022/12/08 07:06:53;;;;;;;72.35;30.75;;;1.40;99.90;;;;;;6253135;28;20515;-80
2022/12/08 07:09:56;;;;;;;80.23;32.90;;;1.40;99.90;;;;;;6252261;28;20423;-80
2022/12/08 07:12:58;;;;;;;58.87;30.67;;;1.40;99.90;;;;;;6253065;28;20049;-80
2022/12/08 07:16:00;;;;;;;72.80;31.00;;;1.50;99.90;;;;;;6253634;28;20060;-80
2022/12/08 07:19:01;;;;;;;72.15;32.85;;;1.50;99.90;;;;;;6252013;28;20478;-80
2022/12/08 07:22:03;;;;;;;74.65;32.17;;;1.50;99.90;;;;;;6254069;28;20423;-80
2022/12/08 07:25:07;;;;;;;72.53;33.95;;;1.50;99.90;;;;;;6253243;28;20681;-80
2022/12/08 07:28:11;;;;;;;71.82;33.78;;;1.60;99.90;;;;;;6253518;28;20123;-80
2022/12/08 07:31:18;;;;;;;75.63;32.72;;;1.60;99.90;;;;;;6254693;28;20037;-79
2022/12/08 07:34:19;;;;;;;67.73;33.67;;;1.60;99.90;;;;;;6268654;28;20052;-80
2022/12/08 07:37:21;;;;;;;79.47;34.00;;;1.70;99.90;;;;;;6278806;28;20045;-80
2022/12/08 07:40:24;;;;;;;84.82;38.22;;;1.70;99.90;;;;;;6280102;28;20051;-80
2022/12/08 07:43:26;;;;;;;103.78;38.83;;;1.80;99.90;;;;;;6279628;28;20048;-80
2022/12/08 07:46:28;;;;;;;73.85;32.08;;;1.80;99.90;;;;;;6279790;28;20665;-80
2022/12/08 07:49:29;;;;;;;66.43;32.17;;;1.80;99.90;;;;;;6282154;28;20494;-80
2022/12/08 07:52:31;;;;;;;78.18;33.60;;;1.70;99.90;;;;;;6275545;28;20045;-80
2022/12/08 07:55:34;;;;;;;62.65;30.60;;;1.70;99.90;;;;;;6275150;28;20056;-80
2022/12/08 07:58:36;;;;;;;74.68;31.80;;;1.70;99.90;;;;;;6274688;28;20419;-80
2022/12/08 08:01:38;;;;;;;70.82;30.85;;;1.70;99.90;;;;;;6274379;28;20059;-80
2022/12/08 08:04:40;;;;;;;67.72;31.55;;;1.70;99.90;;;;;;6275774;28;20103;-80
2022/12/08 08:07:42;;;;;;;65.50;29.05;;;1.70;99.90;;;;;;6273875;28;20275;-80
2022/12/08 08:10:46;;;;;;;70.25;31.85;;;1.70;99.90;;;;;;6274578;28;20422;-80
2022/12/08 08:13:47;;;;;;;74.40;32.20;;;1.70;99.90;;;;;;6274481;28;20049;-80
2022/12/08 08:16:49;;;;;;;69.35;31.42;;;1.70;99.90;;;;;;6271646;28;20422;-81
2022/12/08 08:19:51;;;;;;;65.38;28.67;;;1.80;99.90;;;;;;6270353;28;20497;-80
2022/12/08 08:22:53;;;;;;;71.43;31.60;;;1.80;99.90;;;;;;6271016;28;20045;-80
2022/12/08 08:25:59;;;;;;;63.55;32.85;;;1.80;99.90;;;;;;6270943;28;20048;-80
2022/12/08 08:29:00;;;;;;;67.75;32.97;;;1.90;99.90;;;;;;6270929;28;20056;-80
2022/12/08 08:32:02;;;;;;;74.97;32.08;;;2.00;99.90;;;;;;6271612;28;20048;-80
2022/12/08 08:35:04;;;;;;;61.25;31.85;;;2.00;99.90;;;;;;6262331;28;20049;-81
2022/12/08 08:38:06;;;;;;;68.15;30.98;;;2.10;99.90;;;;;;6270772;28;20052;-81
2022/12/08 08:41:10;;;;;;;81.75;33.88;;;2.20;99.90;;;;;;6257163;28;20645;-81
2022/12/08 08:44:13;;;;;;;61.67;33.80;;;2.20;99.90;;;;;;6246514;28;20054;-81
2022/12/08 08:47:15;;;;;;;66.85;32.33;;;2.30;99.90;;;;;;6246022;28;20103;-81
2022/12/08 08:50:17;;;;;;;57.10;28.92;;;2.40;99.90;;;;;;6246530;28;20053;-81
2022/12/08 08:53:19;;;;;;;66.22;32.35;;;2.50;99.90;;;;;;6246494;28;20045;-80
2022/12/08 08:56:23;;;;;;;59.80;29.38;;;2.50;99.90;;;;;;6247195;28;20053;-79
2022/12/08 08:59:25;;;;;;;54.58;29.60;;;2.50;99.90;;;;;;6231529;28;20061;-80
2022/12/08 09:02:26;;;;;;;61.20;28.80;;;2.50;99.90;;;;;;6244745;28;20044;-81
2022/12/08 09:05:28;;;;;;;55.10;31.60;;;2.60;99.90;;;;;;6255548;28;20051;-80
2022/12/08 09:08:30;;;;;;;56.08;29.33;;;2.60;99.90;;;;;;6250005;28;20057;-80
2022/12/08 09:11:33;;;;;;;58.65;28.30;;;2.60;99.90;;;;;;6225360;28;20062;-80
2022/12/08 09:14:35;;;;;;;50.45;28.48;;;2.70;99.90;;;;;;6226508;28;20046;-81
2022/12/08 09:17:37;;;;;;;58.53;28.33;;;2.80;99.90;;;;;;6229728;28;20057;-80
2022/12/08 09:20:38;;;;;;;47.90;29.13;;;2.80;99.90;;;;;;6252316;28;20112;-80
2022/12/08 09:23:40;;;;;;;52.17;29.05;;;2.90;99.90;;;;;;6251823;28;20049;-80
2022/12/08 09:26:45;;;;;;;56.53;30.77;;;3.00;99.90;;;;;;6249854;28;20041;-80
2022/12/08 09:29:47;;;;;;;46.47;28.27;;;3.10;99.90;;;;;;6249780;28;20049;-80
2022/12/08 09:32:48;;;;;;;61.05;33.70;;;3.20;99.90;;;;;;6250188;28;20052;-80
2022/12/08 09:35:50;;;;;;;53.50;29.83;;;3.30;99.90;;;;;;6253747;28;20068;-80
2022/12/08 09:38:53;;;;;;;51.55;32.17;;;3.30;99.90;;;;;;6250005;28;20053;-82
2022/12/08 09:42:00;;;;;;;50.15;31.45;;;3.30;99.90;;;;;;6232854;28;20042;-80
2022/12/08 09:45:05;;;;;;;56.67;28.55;;;3.50;99.90;;;;;;6247888;28;20053;-80
2022/12/08 09:48:13;;;;;;;51.78;26.88;;;3.50;99.90;;;;;;6248858;28;20048;-80
2022/12/08 09:51:15;;;;;;;;;;;3.60;99.90;;;;;;6250522;28;20058;-80
2022/12/08 09:54:20;;;;;;;46.45;26.27;;;3.60;99.90;;;;;;6255082;28;19921;-80
2022/12/08 09:57:25;;;;;;;41.88;25.52;;;3.60;99.90;;;;;;6259275;28;20057;-79
2022/12/08 10:00:27;;;;;;;47.22;27.23;;;3.70;99.90;;;;;;6252590;28;20057;-81
2022/12/08 10:03:30;;;;;;;43.92;24.25;;;3.70;99.90;;;;;;6250347;28;20057;-80
2022/12/08 10:06:38;;;;;;;47.13;24.88;;;3.70;99.90;;;;;;6250526;28;20617;-81
2022/12/08 10:09:44;;;;;;;41.97;24.88;;;3.80;99.90;;;;;;6248854;28;20061;-80
2022/12/08 10:12:54;;;;;;;40.35;23.67;;;3.90;99.90;;;;;;6252859;28;20495;-80
2022/12/08 10:16:07;;;;;;;45.67;25.83;;;3.90;99.90;;;;;;6250090;28;20052;-80
2022/12/08 10:19:15;;;;;;;39.00;24.70;;;4.00;99.90;;;;;;6249355;28;20057;-80
2022/12/08 10:22:19;;;;;;;;;;;4.10;99.90;;;;;;6251133;28;20047;-81
2022/12/08 10:25:29;;;;;;;35.42;23.42;;;4.10;99.90;;;;;;6249379;28;19921;-81
2022/12/08 10:28:34;;;;;;;38.38;24.95;;;4.20;99.90;;;;;;6250181;28;20413;-81
2022/12/08 10:31:36;;;;;;;42.38;24.67;;;4.20;99.90;;;;;;6249902;28;20526;-81
2022/12/08 10:35:00;;;;;;;39.25;21.80;;;4.20;99.90;;;;;;6249195;28;20049;-81
2022/12/08 10:38:05;;;;;;;35.33;21.13;;;4.40;99.90;;;;;;6257043;28;20049;-81
2022/12/08 10:41:12;;;;;;;40.47;25.38;;;4.50;99.90;;;;;;6250633;28;20051;-81
2022/12/08 10:44:16;;;;;;;43.95;24.85;;;4.50;99.90;;;;;;6250911;28;20046;-81
2022/12/08 10:47:21;;;;;;;40.22;25.38;;;4.70;99.90;;;;;;6249525;28;20128;-82
2022/12/08 10:50:33;;;;;;;35.72;23.17;;;4.70;99.90;;;;;;6250310;28;20049;-81
2022/12/08 10:53:45;;;;;;;30.30;21.15;;;4.80;99.90;;;;;;6252317;28;20042;-81
2022/12/08 10:56:54;;;;;;;31.80;21.45;;;4.80;99.90;;;;;;6250554;28;20061;-81
2022/12/08 10:59:56;;;;;;;33.05;20.80;;;4.90;99.90;;;;;;6248670;28;20082;-81
2022/12/08 11:02:59;;;;;;;51.97;25.63;;;4.90;99.90;;;;;;6249473;28;20038;-81
2022/12/08 11:06:13;;;;;;;38.97;22.60;;;4.90;99.90;;;;;;6249194;28;20075;-81
2022/12/08 11:09:45;;;;;;;32.45;20.75;;;4.90;99.90;;;;;;6248846;28;20049;-81
2022/12/08 11:12:49;;;;;;;28.08;17.10;;;4.90;99.90;;;;;;6240715;28;20049;-81
2022/12/08 11:15:51;;;;;;;27.65;16.90;;;4.90;99.90;;;;;;6248755;28;20045;-81
2022/12/08 11:18:56;;;;;;;32.72;17.63;;;5.00;99.90;;;;;;6248334;28;20049;-81
2022/12/08 11:21:59;;;;;;;27.05;17.15;;;5.00;99.90;;;;;;6248702;28;20049;-81
2022/12/08 11:25:09;;;;;;;28.73;17.38;;;5.10;99.90;;;;;;6247873;28;20053;-80
2022/12/08 11:28:11;;;;;;;30.55;19.08;;;5.10;99.90;;;;;;6247702;28;20451;-81
2022/12/08 11:31:29;;;;;;;36.72;21.00;;;5.10;99.90;;;;;;6249267;28;20068;-82
2022/12/08 11:34:34;;;;;;;30.17;18.50;;;5.10;99.90;;;;;;6248357;28;20041;-82
2022/12/08 11:37:40;;;;;;;30.08;19.25;;;5.20;99.90;;;;;;6259946;28;20060;-81
2022/12/08 11:40:43;;;;;;;25.67;17.48;;;5.20;99.90;;;;;;6272601;28;20065;-82
2022/12/08 11:43:52;;;;;;;29.60;16.42;;;5.30;99.90;;;;;;6272071;28;20407;-82
2022/12/08 11:46:58;;;;;;;30.63;18.70;;;5.40;99.90;;;;;;6272296;28;20040;-82
2022/12/08 11:50:12;;;;;;;32.58;18.50;;;5.40;99.90;;;;;;6272617;28;20114;-82
2022/12/08 11:53:20;;;;;;;18.35;11.98;;;5.50;99.90;;;;;;6272700;28;20045;-81
2022/12/08 11:56:27;;;;;;;18.38;13.20;;;5.50;99.90;;;;;;6272989;28;20060;-82
2022/12/08 11:59:32;;;;;;;22.55;13.82;;;5.40;99.90;;;;;;6271193;28;20396;-81
2022/12/08 12:02:41;;;;;;;18.38;11.75;;;5.30;99.90;;;;;;6255523;28;20045;-82
2022/12/08 12:05:54;;;;;;;13.85;10.10;;;5.40;99.90;;;;;;6248085;28;20124;-81
2022/12/08 12:09:07;;;;;;;18.42;9.18;;;5.50;99.90;;;;;;6247652;28;20049;-82
2022/12/08 12:12:18;;;;;;;12.88;7.95;;;5.50;99.90;;;;;;6248758;28;20042;-82
2022/12/08 12:15:48;;;;;;;13.68;8.77;;;5.50;99.90;;;;;;6247509;28;20059;-82
2022/12/08 12:18:53;;;;;;;13.18;9.75;;;5.50;99.90;;;;;;6246472;28;20045;-81
2022/12/08 12:21:56;;;;;;;10.23;7.95;;;5.50;99.90;;;;;;6247309;28;20042;-79
2022/12/08 12:25:00;;;;;;;14.88;9.65;;;5.50;99.90;;;;;;6246681;28;20049;-81
2022/12/08 12:28:05;;;;;;;13.52;8.63;;;5.50;99.90;;;;;;6248556;28;20045;-81
2022/12/08 12:31:11;;;;;;;10.65;7.45;;;5.50;99.90;;;;;;6249641;28;20041;-82
2022/12/08 12:34:19;;;;;;;11.50;8.77;;;5.40;99.90;;;;;;6246569;28;20050;-82
2022/12/08 12:37:24;;;;;;;15.32;10.18;;;5.40;99.90;;;;;;6246421;28;20048;-82
2022/12/08 12:40:34;;;;;;;13.95;9.35;;;5.40;99.90;;;;;;6247013;28;20068;-83
2022/12/08 12:43:37;;;;;;;11.65;6.95;;;5.40;99.90;;;;;;6246976;28;20052;-81
2022/12/08 12:46:52;;;;;;;11.60;7.68;;;5.50;99.90;;;;;;6246322;28;20056;-82
2022/12/08 12:50:15;;;;;;;11.95;7.88;;;5.50;99.90;;;;;;6246356;28;20049;-82
2022/12/08 12:53:46;;;;;;;13.48;7.90;;;5.50;99.90;;;;;;6246242;28;20048;-82
2022/12/08 12:56:52;;;;;;;14.48;9.20;;;5.50;99.90;;;;;;6247973;28;20049;-83
2022/12/08 13:00:17;;;;;;;14.88;9.40;;;5.50;99.90;;;;;;6245702;28;20053;-81
2022/12/08 13:03:19;;;;;;;16.48;11.38;;;5.50;99.90;;;;;;6237772;28;20042;-81
2022/12/08 13:06:24;;;;;;;14.02;10.63;;;5.60;99.90;;;;;;6246755;28;20415;-80
2022/12/08 13:09:32;;;;;;;14.30;11.85;;;5.70;99.90;;;;;;6245578;28;20045;-80
2022/12/08 13:12:35;;;;;;;13.45;8.13;;;5.70;99.90;;;;;;6250021;28;20060;-80
2022/12/08 13:15:38;;;;;;;11.45;8.25;;;5.70;99.90;;;;;;6248501;28;20075;-80
2022/12/08 13:18:42;;;;;;;11.63;6.63;;;5.80;99.90;;;;;;6247424;28;20045;-81
2022/12/08 13:21:44;;;;;;;14.68;13.05;;;5.80;99.90;;;;;;6248924;28;20415;-80
2022/12/08 13:24:46;;;;;;;9.13;7.35;;;5.80;99.90;;;;;;6250231;28;20045;-80
2022/12/08 13:27:54;;;;;;;9.27;5.72;;;5.80;99.90;;;;;;6249306;28;20045;-83
2022/12/08 13:30:58;;;;;;;16.25;10.30;;;5.80;99.90;;;;;;6250602;28;20041;-81
2022/12/08 13:34:00;;;;;;;9.57;5.90;;;5.90;99.90;;;;;;6248559;28;20060;-81
2022/12/08 13:37:18;;;;;;;10.38;6.60;;;5.80;99.90;;;;;;6248293;28;20571;-81
2022/12/08 13:40:22;;;;;;;;;;;5.80;99.90;;;;;;6261406;28;20399;-82
2022/12/08 13:43:35;;;;;;;7.50;5.63;;;5.80;99.90;;;;;;6248099;28;20012;-81
2022/12/08 13:46:42;;;;;;;7.18;5.80;;;5.80;99.90;;;;;;6247933;28;20060;-80
2022/12/08 13:49:50;;;;;;;10.88;5.60;;;5.80;99.90;;;;;;6252030;28;20049;-80
2022/12/08 13:52:55;;;;;;;13.13;7.05;;;5.70;99.90;;;;;;6254314;28;20103;-81
2022/12/08 13:55:59;;;;;;;9.30;6.38;;;5.60;99.90;;;;;;6247949;28;20054;-81
2022/12/08 13:59:10;;;;;;;9.10;6.25;;;5.60;99.90;;;;;;6231508;28;20065;-80
2022/12/08 14:02:17;;;;;;;11.90;8.80;;;5.60;99.90;;;;;;6230120;28;20049;-82
2022/12/08 14:05:21;;;;;;;11.35;6.43;;;5.60;99.90;;;;;;6256089;28;20048;-82
2022/12/08 14:08:30;;;;;;;17.88;14.57;;;5.60;99.90;;;;;;6253786;28;20049;-81
2022/12/08 14:11:36;;;;;;;13.00;8.88;;;5.50;99.90;;;;;;6252974;28;20049;-82
2022/12/08 14:14:41;;;;;;;10.80;7.22;;;5.50;99.90;;;;;;6264783;22;20759;-84
2022/12/08 14:17:51;;;;;;;10.43;7.82;;;5.50;99.90;;;;;;6229993;28;20053;-84
2022/12/08 14:21:05;;;;;;;11.98;7.72;;;5.40;99.90;;;;;;6230670;28;20060;-83
2022/12/08 14:24:08;;;;;;;13.13;9.68;;;5.40;99.90;;;;;;6228932;28;20157;-83
2022/12/08 14:27:15;;;;;;;162.65;89.43;;;5.40;99.90;;;;;;6228992;28;20236;-82
2022/12/08 14:30:27;;;;;;;31.25;20.00;;;5.30;99.90;;;;;;6228914;28;20060;-84
2022/12/08 14:33:31;;;;;;;26.65;17.30;;;5.40;99.90;;;;;;6229197;28;20105;-82
2022/12/08 14:36:33;;;;;;;128.88;76.82;;;5.40;99.90;;;;;;6229312;28;20054;-83
2022/12/08 14:39:35;;;;;;;12.55;8.75;;;5.40;99.90;;;;;;6221767;28;20050;-84
2022/12/08 14:42:43;;;;;;;8.35;7.43;;;5.30;99.90;;;;;;6220433;28;20054;-83
2022/12/08 14:45:52;;;;;;;11.10;9.00;;;5.30;99.90;;;;;;6205611;28;20050;-83
2022/12/08 14:48:55;;;;;;;17.45;9.23;;;5.30;99.90;;;;;;6203558;28;20054;-84
2022/12/08 14:51:57;;;;;;;7.82;7.03;;;5.20;99.90;;;;;;6203944;28;20051;-83
2022/12/08 14:54:59;;;;;;;9.30;7.30;;;5.20;99.90;;;;;;6204137;28;20050;-83
2022/12/08 14:58:01;;;;;;;15.07;11.13;;;5.20;99.90;;;;;;6204302;28;20058;-82
2022/12/08 15:01:09;;;;;;;11.43;8.55;;;5.20;99.90;;;;;;6217432;28;20426;-83
2022/12/08 15:04:18;;;;;;;15.00;10.18;;;5.20;99.90;;;;;;6230127;28;20042;-83
2022/12/08 15:07:22;;;;;;;20.35;8.75;;;5.20;99.90;;;;;;6228502;28;20061;-84
2022/12/08 15:10:28;;;;;;;13.93;9.93;;;5.20;99.90;;;;;;6227327;28;20136;-83
2022/12/08 15:13:32;;;;;;;14.70;11.32;;;5.20;99.90;;;;;;6227886;28;20061;-83
2022/12/08 15:16:42;;;;;;;12.23;10.55;;;5.20;99.90;;;;;;6228110;28;20498;-82
2022/12/08 15:19:56;;;;;;;18.33;11.73;;;5.20;99.90;;;;;;6228744;28;20056;-84
2022/12/08 15:22:59;;;;;;;11.43;9.13;;;5.10;99.90;;;;;;6227661;28;20050;-85
2022/12/08 15:26:04;;;;;;;11.90;8.63;;;5.10;99.90;;;;;;6227547;28;20084;-82
2022/12/08 15:29:11;;;;;;;10.30;8.48;;;5.00;99.90;;;;;;6226915;28;20706;-84
2022/12/08 15:32:18;;;;;;;10.02;7.80;;;5.00;99.90;;;;;;6227783;28;20645;-82
2022/12/08 15:35:23;;;;;;;14.75;7.10;;;5.00;99.90;;;;;;6226425;28;20045;-82
2022/12/08 15:38:57;;;;;;;11.85;7.60;;;5.00;99.90;;;;;;6219839;28;20042;-84
2022/12/08 15:46:29;;;;;;;12.13;6.38;;;4.90;99.90;;;;;;6233238;28;20077;-83
2022/12/08 15:49:35;;;;;;;8.13;5.63;;;4.80;99.90;;;;;;6225730;28;20054;-84
2022/12/08 15:52:37;;;;;;;8.82;6.63;;;4.80;99.90;;;;;;6231265;28;20065;-84
2022/12/08 15:55:41;;;;;;;9.77;5.95;;;4.80;99.90;;;;;;6230034;28;20049;-83
2022/12/08 15:58:43;;;;;;;7.38;5.15;;;4.80;99.90;;;;;;6229905;28;20054;-84
2022/12/08 16:01:47;;;;;;;9.68;6.30;;;4.70;99.90;;;;;;6238612;28;20050;-83
2022/12/08 16:04:50;;;;;;;8.10;5.68;;;4.70;99.90;;;;;;6232968;28;20053;-84
2022/12/08 16:07:53;;;;;;;10.20;6.22;;;4.60;99.90;;;;;;6229276;28;20133;-82
2022/12/08 16:13:49;;;;;;;12.05;7.28;;;4.60;99.90;;;;;;6229877;28;20442;-83
2022/12/08 16:14:17;;;;;;;6.47;4.97;;;4.60;99.90;;;;;;6228390;28;20061;-83